Time;durP1;ratioP1;P1;durP2;ratioP2;P2;SDS_P1;SDS_P2;PMS_P1;PMS_P2;Temp;Humidity;BMP_temperature;BMP_pressure;BME280_temperature;BME280_humidity;BME280_pressure;Samples;Min_cycle;Max_cycle;Signal;HPM_P1;HPM_P2
2021/06/22 00:02:22;;;;;;;158.03;18.82;;;;;;;21.21;83.56;99925.77;1674838;83;21140;-79
2021/06/22 00:04:49;;;;;;;187.03;22.02;;;;;;;21.13;84.00;99921.08;1654908;86;21046;-79
2021/06/22 00:07:20;;;;;;;181.12;22.52;;;;;;;21.07;84.44;99929.61;1654916;86;21105;-77
2021/06/22 00:09:47;;;;;;;161.18;19.73;;;;;;;20.99;85.10;99929.42;1654894;86;21701;-78
2021/06/22 00:12:16;;;;;;;169.72;19.90;;;;;;;20.92;85.60;99933.94;1668871;86;21129;-76
2021/06/22 00:14:43;;;;;;;168.62;21.50;;;;;;;20.86;85.97;99929.59;1668384;86;21136;-78
2021/06/22 00:17:12;;;;;;;184.48;22.85;;;;;;;20.82;86.36;99930.34;1681526;84;21121;-78
2021/06/22 00:19:39;;;;;;;169.13;19.60;;;;;;;20.77;86.62;99928.52;1696323;84;21104;-77
2021/06/22 00:22:06;;;;;;;151.42;17.20;;;;;;;20.74;86.81;99926.95;1696535;84;21576;-78
2021/06/22 00:24:33;;;;;;;152.55;19.00;;;;;;;20.71;86.89;99921.86;1696607;84;21136;-79
2021/06/22 00:27:00;;;;;;;160.20;20.68;;;;;;;20.70;87.06;99930.84;1696340;84;21081;-78
2021/06/22 00:29:27;;;;;;;179.20;21.37;;;;;;;20.67;87.18;99940.47;1696524;84;21077;-77
2021/06/22 00:31:55;;;;;;;180.37;20.85;;;;;;;20.62;87.48;99937.33;1696279;84;21219;-78
2021/06/22 00:34:22;;;;;;;160.55;20.72;;;;;;;20.58;87.57;99936.38;1696520;84;21127;-80
2021/06/22 00:36:49;;;;;;;187.37;21.00;;;;;;;20.54;87.73;99939.28;1696460;84;22131;-79
2021/06/22 00:39:17;;;;;;;167.03;21.93;;;;;;;20.50;88.06;99941.83;1697781;84;21053;-78
2021/06/22 00:41:44;;;;;;;167.62;21.00;;;;;;;20.46;88.27;99939.53;1697520;84;21070;-77
2021/06/22 00:44:12;;;;;;;191.95;21.05;;;;;;;20.43;88.54;99941.09;1696747;84;21092;-77
2021/06/22 00:46:41;;;;;;;187.18;22.90;;;;;;;20.39;88.68;99939.67;1696210;84;21143;-79
2021/06/22 00:49:08;;;;;;;161.18;20.20;;;;;;;20.39;88.77;99944.52;1696403;84;21563;-77
2021/06/22 00:51:37;;;;;;;204.93;22.82;;;;;;;20.39;88.66;99939.17;1695962;84;21567;-77
2021/06/22 00:54:05;;;;;;;163.65;19.73;;;;;;;20.40;88.48;99936.01;1696229;84;21065;-75
2021/06/22 00:56:34;;;;;;;190.12;21.52;;;;;;;20.41;88.26;99936.39;1696332;84;21100;-76
2021/06/22 00:59:01;;;;;;;175.03;20.82;;;;;;;20.42;88.00;99934.06;1696356;84;21445;-76
2021/06/22 01:01:28;;;;;;;179.30;20.70;;;;;;;20.45;87.58;99931.13;1696028;83;21135;-76
2021/06/22 01:03:55;;;;;;;143.93;17.65;;;;;;;20.46;87.43;99920.81;1642328;85;21086;-77
2021/06/22 01:06:22;;;;;;;118.67;15.00;;;;;;;20.44;87.23;99912.06;1686102;85;21092;-75
2021/06/22 01:08:59;;;;;;;156.70;18.67;;;;;;;20.43;87.31;99919.70;1672579;85;21101;-75
2021/06/22 01:11:25;;;;;;;160.18;20.48;;;;;;;20.40;87.22;99917.29;1686191;85;21789;-74
2021/06/22 01:13:52;;;;;;;153.95;19.02;;;;;;;20.37;87.34;99917.05;1686549;85;21104;-82
2021/06/22 01:16:22;;;;;;;169.45;20.92;;;;;;;20.33;87.60;99920.45;1686434;85;21606;-80
2021/06/22 01:19:00;;;;;;;148.93;20.15;;;;;;;20.30;87.65;99918.53;1686140;85;21058;-80
2021/06/22 01:21:30;;;;;;;138.65;19.12;;;;;;;20.24;87.63;99913.17;1686087;84;21122;-80
2021/06/22 01:24:12;;;;;;;136.03;18.37;;;;;;;20.19;87.56;99909.19;1685472;85;21654;-80
2021/06/22 01:26:46;;;;;;;130.97;15.48;;;;;;;20.18;87.41;99908.34;1664285;85;21664;-80
2021/06/22 01:29:14;;;;;;;132.03;17.48;;;;;;;20.17;87.29;99906.62;1686095;85;21517;-78
2021/06/22 01:31:41;;;;;;;145.43;15.40;;;;;;;20.13;87.16;99913.22;1685867;85;21054;-75
2021/06/22 01:34:09;;;;;;;134.85;16.70;;;;;;;20.09;87.13;99910.42;1685956;85;21718;-74
2021/06/22 01:36:40;;;;;;;134.47;15.20;;;;;;;20.04;87.14;99909.94;1685911;85;21243;-75
2021/06/22 01:39:13;;;;;;;135.18;15.58;;;;;;;20.01;87.25;99902.15;1686329;85;21561;-73
2021/06/22 01:41:40;;;;;;;120.15;15.72;;;;;;;19.97;87.31;99899.35;1685888;85;21124;-75
2021/06/22 01:44:09;;;;;;;133.95;18.12;;;;;;;19.93;87.38;99891.23;1686148;85;21081;-73
2021/06/22 01:46:37;;;;;;;138.45;15.75;;;;;;;19.90;87.45;99891.84;1686260;85;21141;-74
2021/06/22 01:49:06;;;;;;;125.53;15.80;;;;;;;19.88;87.58;99892.45;1685814;85;21096;-74
2021/06/22 01:51:35;;;;;;;139.60;16.17;;;;;;;19.86;87.54;99893.05;1685738;85;21046;-74
2021/06/22 01:54:02;;;;;;;132.97;17.55;;;;;;;19.84;87.50;99885.64;1686159;85;21121;-74
2021/06/22 01:56:32;;;;;;;143.72;16.42;;;;;;;19.82;87.46;99888.92;1685840;85;21602;-73
2021/06/22 01:59:03;;;;;;;151.45;16.67;;;;;;;19.79;87.52;99895.85;1686210;85;21149;-73
2021/06/22 02:01:48;;;;;;;140.22;16.12;;;;;;;19.77;87.60;99890.27;1685674;84;22318;-72
2021/06/22 02:04:19;;;;;;;123.53;16.32;;;;;;;19.73;87.80;99896.33;1685296;85;21510;-72
2021/06/22 02:06:48;;;;;;;85.95;11.60;;;;;;;19.70;87.97;99895.24;1685802;85;21061;-73
2021/06/22 02:09:22;;;;;;;125.12;16.40;;;;;;;19.66;88.07;99891.08;1656587;85;21058;-74
2021/06/22 02:11:50;;;;;;;128.05;15.40;;;;;;;19.64;87.97;99891.19;1686086;85;21106;-76
2021/06/22 02:14:18;;;;;;;118.97;15.25;;;;;;;19.64;87.92;99893.02;1685903;84;21069;-75
2021/06/22 02:16:45;;;;;;;110.95;13.68;;;;;;;19.63;87.84;99890.83;1685826;85;21113;-74
2021/06/22 02:19:12;;;;;;;106.32;14.10;;;;;;;19.64;87.50;99895.69;1686099;85;21129;-74
2021/06/22 02:21:41;;;;;;;108.60;14.30;;;;;;;19.64;87.21;99889.00;1685879;84;21176;-73
2021/06/22 02:24:10;;;;;;;110.55;14.15;;;;;;;19.61;86.86;99880.75;1686089;85;21125;-73
2021/06/22 02:26:37;;;;;;;86.50;12.07;;;;;;;19.69;86.16;99881.50;1685954;85;21575;-73
2021/06/22 02:29:04;;;;;;;94.65;12.13;;;;;;;19.74;84.94;99886.02;1686158;85;21073;-73
2021/06/22 02:31:32;;;;;;;92.20;11.90;;;;;;;19.81;84.19;99877.03;1685196;85;21114;-73
2021/06/22 02:34:01;;;;;;;95.47;11.65;;;;;;;19.88;83.52;99879.58;1731872;82;21457;-74
2021/06/22 02:36:28;;;;;;;90.47;11.00;;;;;;;19.97;82.07;99881.52;1732103;82;21105;-73
2021/06/22 02:38:55;;;;;;;86.05;11.78;;;;;;;20.07;81.68;99882.95;1732053;82;21110;-76
2021/06/22 02:41:24;;;;;;;85.40;12.80;;;;;;;20.11;81.72;99880.41;1731793;82;21565;-74
2021/06/22 02:43:52;;;;;;;90.85;11.30;;;;;;;20.15;81.88;99875.15;1731551;82;21593;-77
2021/06/22 02:46:19;;;;;;;94.45;12.55;;;;;;;20.17;82.05;99877.22;1731745;82;21058;-77
2021/06/22 02:48:47;;;;;;;84.47;12.55;;;;;;;20.17;82.19;99876.38;1731841;82;21046;-78
2021/06/22 02:51:15;;;;;;;88.78;10.68;;;;;;;20.17;82.14;99881.23;1668993;86;22154;-79
2021/06/22 02:53:47;;;;;;;79.22;11.38;;;;;;;20.18;81.60;99885.62;1668842;85;21067;-78
2021/06/22 02:56:14;;;;;;;86.28;11.20;;;;;;;20.22;81.40;99877.72;1668872;86;21922;-81
2021/06/22 02:58:42;;;;;;;67.42;10.98;;;;;;;20.26;81.36;99883.64;1732243;82;21137;-82
2021/06/22 03:01:11;;;;;;;82.60;11.65;;;;;;;20.30;81.16;99880.59;1732481;82;21053;-79
2021/06/22 03:03:39;;;;;;;88.85;11.83;;;;;;;20.36;80.85;99879.27;1742325;82;21112;-79
2021/06/22 03:06:08;;;;;;;87.53;11.30;;;;;;;20.43;80.51;99883.59;1747569;81;21049;-75
2021/06/22 03:08:44;;;;;;;94.03;11.57;;;;;;;20.49;80.12;99884.44;1746347;82;21560;-77
2021/06/22 03:11:08;;;;;;;89.03;11.85;;;;;;;20.54;79.75;99891.59;1746257;82;21081;-75
2021/06/22 03:13:37;;;;;;;85.28;10.20;;;;;;;20.61;79.31;99890.14;1747872;82;21080;-74
2021/06/22 03:16:06;;;;;;;80.07;11.83;;;;;;;20.68;78.76;99890.02;1747566;82;21619;-73
2021/06/22 03:18:33;;;;;;;87.62;11.03;;;;;;;20.77;78.46;99890.20;1747629;82;21532;-74
2021/06/22 03:21:01;;;;;;;66.60;10.85;;;;;;;20.84;78.01;99891.39;1720092;82;21073;-74
2021/06/22 03:23:28;;;;;;;83.33;10.85;;;;;;;20.94;77.77;99891.00;1747725;82;21039;-79
2021/06/22 03:25:56;;;;;;;87.90;12.65;;;;;;;21.06;77.15;99892.63;1747611;82;21053;-79
2021/06/22 03:28:23;;;;;;;83.33;11.55;;;;;;;21.17;76.77;99886.37;1747873;82;21099;-78
2021/06/22 03:31:09;;;;;;;73.78;10.65;;;;;;;21.32;76.12;99890.89;1747749;82;20990;-77
2021/06/22 03:33:36;;;;;;;73.12;10.58;;;;;;;21.46;75.37;99889.23;1747672;82;21077;-78
2021/06/22 03:36:04;;;;;;;76.82;11.50;;;;;;;21.60;74.78;99888.05;1747787;82;21001;-78
2021/06/22 03:38:32;;;;;;;72.53;10.65;;;;;;;21.74;74.07;99892.20;1720243;82;21002;-77
2021/06/22 03:40:59;;;;;;;64.72;9.23;;;;;;;21.87;73.25;99894.16;1747676;82;21798;-76
2021/06/22 03:43:27;;;;;;;69.72;9.93;;;;;;;22.03;72.46;99896.34;1747410;82;21120;-77
2021/06/22 03:45:55;;;;;;;77.00;11.50;;;;;;;22.18;71.84;99900.85;1747543;82;21044;-77
2021/06/22 03:48:23;;;;;;;71.07;9.78;;;;;;;22.34;71.63;99893.16;1747549;82;21010;-77
2021/06/22 03:50:51;;;;;;;60.58;9.45;;;;;;;22.50;70.43;99892.62;1747678;81;21049;-76
2021/06/22 03:53:19;;;;;;;58.68;7.83;;;;;;;22.66;68.22;99893.41;1747638;81;21356;-78
2021/06/22 03:55:47;;;;;;;53.63;7.92;;;;;;;22.83;67.81;99895.37;1747693;82;21065;-77
2021/06/22 03:58:15;;;;;;;50.60;7.28;;;;;;;23.00;66.18;99893.84;1747229;82;21029;-78
2021/06/22 04:00:50;;;;;;;46.30;8.45;;;;;;;23.18;64.90;99899.84;1746802;82;21048;-76
2021/06/22 04:03:19;;;;;;;48.70;6.72;;;;;;;23.34;63.10;99903.28;1747655;82;21568;-81
2021/06/22 04:05:48;;;;;;;42.48;6.05;;;;;;;23.46;61.78;99902.12;1747142;82;21147;-80
2021/06/22 04:08:19;;;;;;;48.40;7.00;;;;;;;23.60;60.83;99898.12;1747044;82;21072;-82
2021/06/22 04:10:47;;;;;;;46.83;7.00;;;;;;;23.73;60.72;99903.18;1747961;82;21069;-82
2021/06/22 04:13:14;;;;;;;42.83;6.75;;;;;;;23.81;59.46;99896.59;1748090;81;21517;-82
2021/06/22 04:15:42;;;;;;;38.25;5.90;;;;;;;23.87;59.24;99891.97;1747902;82;21545;-82
2021/06/22 04:18:10;;;;;;;35.20;6.20;;;;;;;23.98;58.56;99888.25;1720290;82;21116;-80
2021/06/22 04:20:39;;;;;;;48.28;5.87;;;;;;;24.13;58.43;99885.89;1747943;81;21049;-78
2021/06/22 04:23:08;;;;;;;39.13;5.33;;;;;;;24.27;57.58;99888.07;1747670;82;21029;-81
2021/06/22 04:25:38;;;;;;;34.83;6.65;;;;;;;24.40;56.56;99881.83;1747847;82;21072;-79
2021/06/22 04:28:06;;;;;;;40.85;5.95;;;;;;;24.51;56.74;99878.63;1748003;82;21579;-80
2021/06/22 04:30:34;;;;;;;37.13;5.25;;;;;;;24.65;56.31;99886.16;1740069;82;21124;-78
2021/06/22 04:33:02;;;;;;;36.53;5.28;;;;;;;24.78;55.59;99886.63;1717742;83;21173;-80
2021/06/22 04:35:30;;;;;;;39.23;5.33;;;;;;;24.88;54.85;99889.23;1717883;83;21090;-75
2021/06/22 04:37:58;;;;;;;31.70;5.00;;;;;;;24.97;53.98;99884.77;1718040;83;21078;-77
2021/06/22 04:40:25;;;;;;;35.70;5.53;;;;;;;25.07;53.63;99894.94;1717875;83;21622;-77
2021/06/22 04:42:52;;;;;;;22.48;4.37;;;;;;;25.25;53.17;99903.88;1717737;83;21161;-78
2021/06/22 04:45:19;;;;;;;29.23;4.87;;;;;;;25.42;52.43;99887.81;1717800;83;21392;-78
2021/06/22 04:47:47;;;;;;;27.75;4.20;;;;;;;25.61;51.81;99890.31;1717657;83;21700;-81
2021/06/22 04:50:13;;;;;;;27.82;4.22;;;;;;;25.80;49.87;99881.64;1722568;82;21147;-81
2021/06/22 04:52:41;;;;;;;26.25;4.83;;;;;;;25.94;51.04;99882.41;1721365;82;22250;-82
2021/06/22 04:55:14;;;;;;;20.43;5.42;;;;;;;26.12;49.47;99885.85;1734131;82;21022;-84
2021/06/22 04:57:43;;;;;;;19.57;4.62;;;;;;;26.20;48.46;99879.63;1747929;82;21030;-82
2021/06/22 05:00:12;;;;;;;20.00;3.85;;;;;;;26.34;48.61;99886.24;1732012;82;21053;-80
2021/06/22 05:02:42;;;;;;;24.63;4.67;;;;;;;26.59;48.04;99875.02;1731488;82;22255;-79
2021/06/22 05:05:11;;;;;;;28.23;4.45;;;;;;;26.78;47.42;99875.23;1721213;82;21130;-82
2021/06/22 05:07:39;;;;;;;24.65;4.50;;;;;;;26.98;46.81;99879.78;1724269;82;21181;-82
2021/06/22 05:10:09;;;;;;;23.57;5.03;;;;;;;27.15;47.18;99875.23;1719539;82;21062;-82
2021/06/22 05:12:36;;;;;;;25.17;4.30;;;;;;;27.36;46.24;99867.97;1708664;82;21066;-82
2021/06/22 05:15:04;;;;;;;22.20;4.35;;;;;;;27.54;45.71;99877.23;1714272;82;21026;-83
2021/06/22 05:17:31;;;;;;;26.30;4.60;;;;;;;27.68;45.86;99884.63;1709597;82;21054;-82
2021/06/22 05:19:58;;;;;;;27.62;4.83;;;;;;;27.71;45.38;99884.27;1705023;84;21849;-84
2021/06/22 05:22:25;;;;;;;24.63;4.05;;;;;;;27.74;45.04;99881.20;1704514;84;21138;-83
2021/06/22 05:24:52;;;;;;;27.20;4.60;;;;;;;27.76;45.39;99881.88;1705239;84;21652;-82
2021/06/22 05:27:20;;;;;;;29.95;4.53;;;;;;;27.81;44.77;99886.28;1704811;82;21049;-81
2021/06/22 05:29:47;;;;;;;28.30;5.05;;;;;;;27.83;44.31;99874.77;1705097;84;21065;-85
2021/06/22 05:32:16;;;;;;;30.40;4.95;;;;;;;27.88;44.09;99877.47;1715856;82;21851;-84
2021/06/22 05:34:44;;;;;;;23.50;4.10;;;;;;;27.97;44.41;99877.77;1707444;82;21026;-84
2021/06/22 05:37:11;;;;;;;33.35;6.08;;;;;;;28.08;44.36;99877.39;1699000;82;21538;-82
2021/06/22 05:39:38;;;;;;;37.03;6.10;;;;;;;28.27;43.00;99880.68;1670234;85;21129;-83
2021/06/22 05:42:06;;;;;;;29.10;5.58;;;;;;;28.22;43.96;99884.75;1669969;84;21579;-83
2021/06/22 05:44:33;;;;;;;23.22;4.62;;;;;;;28.23;43.91;99882.91;1670837;85;21618;-81
2021/06/22 05:47:00;;;;;;;36.05;5.03;;;;;;;28.24;44.02;99882.72;1730707;82;21082;-83
2021/06/22 05:49:27;;;;;;;33.38;4.65;;;;;;;28.37;43.76;99893.50;1704790;82;21022;-74
2021/06/22 05:51:54;;;;;;;27.77;4.55;;;;;;;28.40;43.39;99894.48;1704427;82;21077;-75
2021/06/22 05:54:21;;;;;;;34.85;4.15;;;;;;;28.39;44.36;99890.95;1699339;82;21018;-77
2021/06/22 05:56:48;;;;;;;23.57;4.10;;;;;;;28.51;43.81;99890.05;1718175;82;21109;-82
2021/06/22 05:59:15;;;;;;;25.10;4.33;;;;;;;28.70;43.35;99885.19;1723761;82;21057;-84
2021/06/22 06:01:42;;;;;;;20.55;3.55;;;;;;;28.88;43.36;99878.95;1724196;82;21038;-85
2021/06/22 06:04:09;;;;;;;36.55;5.35;;;;;;;29.12;43.30;99887.41;1712331;82;21549;-84
2021/06/22 06:06:36;;;;;;;34.55;5.12;;;;;;;29.42;41.57;99887.47;1718408;82;21068;-85
2021/06/22 06:09:04;;;;;;;42.10;4.45;;;;;;;29.54;41.96;99885.14;1734755;82;21796;-83
2021/06/22 06:11:31;;;;;;;32.80;4.70;;;;;;;29.67;40.89;99886.70;1726895;82;21052;-88
2021/06/22 06:13:58;;;;;;;38.38;4.33;;;;;;;29.74;41.04;99879.52;1731964;82;21022;-88
2021/06/22 06:16:25;;;;;;;28.83;4.15;;;;;;;29.75;41.36;99885.78;1739757;82;21121;-87
2021/06/22 06:18:52;;;;;;;34.08;4.92;;;;;;;29.86;40.91;99880.75;1728462;82;21045;-85
2021/06/22 06:21:19;;;;;;;28.07;4.00;;;;;;;30.04;39.15;99871.35;1730544;82;21125;-85
2021/06/22 06:23:49;;;;;;;20.82;3.20;;;;;;;30.26;39.07;99870.91;1724813;82;21069;-85
2021/06/22 06:26:18;;;;;;;25.32;3.30;;;;;;;30.42;38.19;99875.30;1729391;82;21080;-82
2021/06/22 06:28:50;;;;;;;16.85;3.00;;;;;;;30.60;36.85;99877.06;1733272;82;21013;-74
2021/06/22 06:31:14;;;;;;;25.20;3.90;;;;;;;30.90;36.89;99876.97;1732905;82;21042;-74
2021/06/22 06:33:41;;;;;;;32.70;4.50;;;;;;;31.08;35.25;99874.61;1727580;82;21099;-73
2021/06/22 06:36:08;;;;;;;29.00;4.22;;;;;;;31.13;35.59;99868.58;1735197;82;22305;-73
2021/06/22 06:38:34;;;;;;;31.33;4.85;;;;;;;31.19;35.21;99864.22;1734751;82;21108;-75
2021/06/22 06:41:02;;;;;;;32.80;5.00;;;;;;;31.28;35.52;99858.95;1732126;82;21112;-76
2021/06/22 06:43:29;;;;;;;35.28;5.50;;;;;;;31.36;35.43;99852.02;1734943;82;21030;-73
2021/06/22 06:45:57;;;;;;;40.80;5.67;;;;;;;31.46;35.41;99841.63;1737110;82;21119;-74
2021/06/22 06:48:25;;;;;;;31.60;5.10;;;;;;;31.63;35.03;99854.38;1739505;82;21065;-73
2021/06/22 06:50:52;;;;;;;30.20;4.33;;;;;;;31.76;34.52;99852.27;1728005;82;21036;-73
2021/06/22 06:53:19;;;;;;;32.13;5.15;;;;;;;31.94;35.63;99866.18;1738861;82;21631;-74
2021/06/22 06:55:47;;;;;;;43.70;5.28;;;;;;;32.15;35.95;99861.69;1670287;85;21060;-74
2021/06/22 06:58:14;;;;;;;32.70;4.70;;;;;;;32.38;34.76;99863.53;1746369;82;21902;-73
2021/06/22 07:00:42;;;;;;;31.82;4.17;;;;;;;32.51;34.85;99872.81;1732531;82;21111;-74
2021/06/22 07:03:09;;;;;;;40.55;4.65;;;;;;;32.61;33.18;99882.81;1722562;80;21592;-75
2021/06/22 07:05:36;;;;;;;43.87;5.55;;;;;;;32.68;33.70;99891.84;1668527;85;21137;-74
2021/06/22 07:08:04;;;;;;;44.27;5.78;;;;;;;32.73;33.81;99902.13;1711756;82;21090;-75
2021/06/22 07:10:32;;;;;;;32.48;4.92;;;;;;;32.51;34.01;99906.88;1710511;82;21090;-75
2021/06/22 07:13:04;;;;;;;38.60;4.65;;;;;;;32.23;34.34;99909.16;1721557;82;21086;-75
2021/06/22 07:15:37;;;;;;;40.40;4.10;;;;;;;32.16;33.75;99898.77;1723326;82;21008;-74
2021/06/22 07:18:05;;;;;;;25.20;3.45;;;;;;;32.06;33.16;99890.15;1708937;82;21088;-75
2021/06/22 07:20:32;;;;;;;42.75;5.70;;;;;;;31.90;33.34;99898.94;1714235;82;21160;-75
2021/06/22 07:22:59;;;;;;;45.88;5.62;;;;;;;31.80;33.91;99912.61;1720861;82;21122;-74
2021/06/22 07:25:26;;;;;;;43.17;5.35;;;;;;;31.78;33.97;99906.00;1728725;82;21057;-75
2021/06/22 07:27:54;;;;;;;34.13;5.00;;;;;;;31.65;33.87;99900.47;1707051;82;21083;-75
2021/06/22 07:30:26;;;;;;;48.05;5.17;;;;;;;31.54;34.48;99900.48;1710170;82;21082;-76
2021/06/22 07:32:55;;;;;;;44.33;4.92;;;;;;;31.61;35.34;99903.26;1709168;82;21030;-76
2021/06/22 07:35:25;;;;;;;64.82;5.62;;;;;;;31.82;34.55;99908.64;1712203;82;26711;-75
2021/06/22 07:37:52;;;;;;;47.45;5.10;;;;;;;31.87;32.76;99905.32;1703264;82;21648;-74
2021/06/22 07:40:19;;;;;;;45.58;5.15;;;;;;;31.85;33.05;99904.15;1703942;84;21552;-74
2021/06/22 07:42:48;;;;;;;57.13;6.17;;;;;;;31.88;33.14;99902.37;1704824;82;21089;-74
2021/06/22 07:45:15;;;;;;;60.55;6.58;;;;;;;31.93;33.16;99904.49;1712046;82;21118;-74
2021/06/22 07:47:42;;;;;;;66.70;7.00;;;;;;;31.96;33.30;99910.42;1726254;82;21194;-75
2021/06/22 07:50:11;;;;;;;63.08;6.17;;;;;;;32.00;32.95;99895.03;1718884;82;21055;-75
2021/06/22 07:52:38;;;;;;;75.83;7.17;;;;;;;32.03;33.57;99900.09;1721806;82;21777;-75
2021/06/22 07:55:13;;;;;;;75.50;8.58;;;;;;;32.19;33.42;99891.57;1710405;82;21054;-74
2021/06/22 07:57:35;;;;;;;83.47;9.30;;;;;;;32.29;31.96;99898.83;1713156;82;21108;-74
2021/06/22 08:00:19;;;;;;;69.62;9.30;;;;;;;32.36;32.21;99894.23;1717377;82;21071;-75
2021/06/22 08:02:43;;;;;;;84.72;9.43;;;;;;;32.54;32.57;99891.50;1720664;82;21030;-74
2021/06/22 08:05:12;;;;;;;;;;;;;;;32.85;31.82;99891.44;1721754;82;21007;-73
2021/06/22 08:07:39;;;;;;;111.00;11.28;;;;;;;33.04;30.59;99890.62;1741911;82;20206;-75
2021/06/22 08:10:10;;;;;;;103.53;11.93;;;;;;;33.13;31.23;99888.54;1699783;82;21571;-74
2021/06/22 08:12:37;;;;;;;107.03;12.95;;;;;;;33.13;30.69;99895.36;1740321;82;21111;-75
2021/06/22 08:15:07;;;;;;;106.32;12.55;;;;;;;33.10;30.36;99892.53;1726392;82;21125;-74
2021/06/22 08:17:35;;;;;;;95.67;10.88;;;;;;;33.22;30.29;99897.69;1730198;82;21718;-75
2021/06/22 08:20:04;;;;;;;76.90;9.33;;;;;;;33.29;31.22;99895.46;1728517;82;21088;-74
2021/06/22 08:22:31;;;;;;;92.37;10.75;;;;;;;33.46;30.72;99889.89;1737733;82;21561;-73
2021/06/22 08:24:59;;;;;;;123.87;13.30;;;;;;;33.63;30.27;99884.31;1731792;82;21933;-74
2021/06/22 08:27:26;;;;;;;106.67;12.55;;;;;;;33.80;30.12;99884.70;1664547;83;21107;-74
2021/06/22 08:29:53;;;;;;;105.87;11.28;;;;;;;33.90;29.92;99888.34;1663676;83;21525;-75
2021/06/22 08:32:21;;;;;;;126.42;12.53;;;;;;;33.89;29.28;99885.82;1736475;82;21042;-75
2021/06/22 08:34:48;;;;;;;131.43;13.38;;;;;;;34.01;29.06;99883.58;1735263;82;21085;-75
2021/06/22 08:37:15;;;;;;;99.50;12.23;;;;;;;34.09;29.33;99888.48;1720634;82;21554;-75
2021/06/22 08:39:42;;;;;;;117.85;13.22;;;;;;;34.05;29.18;99890.30;1717412;83;21038;-75
2021/06/22 08:42:09;;;;;;;153.62;15.65;;;;;;;33.93;29.16;99896.09;1718213;83;21065;-76
2021/06/22 08:44:40;;;;;;;130.63;16.55;;;;;;;33.85;28.65;99893.09;1717745;83;21439;-74
2021/06/22 08:47:08;;;;;;;154.65;14.05;;;;;;;33.82;28.78;99894.89;1733537;82;21128;-74
2021/06/22 08:49:36;;;;;;;122.15;14.28;;;;;;;33.85;29.09;99898.55;1732319;82;21495;-75
2021/06/22 08:52:05;;;;;;;125.75;14.73;;;;;;;33.93;29.34;99901.56;1747761;81;21045;-75
2021/06/22 08:54:32;;;;;;;144.35;14.38;;;;;;;33.99;29.59;99896.61;1747510;82;21082;-75
2021/06/22 08:57:00;;;;;;;126.67;13.22;;;;;;;34.00;28.91;99891.45;1743613;82;21073;-75
2021/06/22 08:59:28;;;;;;;135.00;14.63;;;;;;;34.11;29.27;99891.34;1741299;82;21033;-76
2021/06/22 09:01:55;;;;;;;151.78;15.95;;;;;;;34.26;29.09;99896.55;1738649;81;21572;-74
2021/06/22 09:04:22;;;;;;;151.60;17.27;;;;;;;34.17;28.03;99898.69;1704619;82;21076;-75
2021/06/22 09:06:49;;;;;;;159.05;18.82;;;;;;;33.97;28.30;99893.25;1725914;82;21516;-76
2021/06/22 09:09:16;;;;;;;155.27;17.42;;;;;;;33.79;28.21;99899.40;1666384;85;21559;-73
2021/06/22 09:12:06;;;;;;;148.55;18.02;;;;;;;33.81;27.44;99902.76;1733434;82;21040;-75
2021/06/22 09:14:37;;;;;;;147.65;15.15;;;;;;;33.81;27.07;99900.56;1734553;82;21803;-79
2021/06/22 09:17:06;;;;;;;171.98;16.40;;;;;;;33.70;26.61;99890.30;1667744;85;22151;-77
2021/06/22 09:19:33;;;;;;;175.75;17.67;;;;;;;33.74;27.66;99888.28;1728946;82;21083;-79
2021/06/22 09:22:19;;;;;;;144.53;16.05;;;;;;;33.92;27.80;99885.41;1665762;85;21453;-80
2021/06/22 09:25:09;;;;;;;165.05;18.02;;;;;;;34.12;27.27;99885.34;1729853;81;21065;-77
2021/06/22 09:27:49;;;;;;;133.22;15.08;;;;;;;34.28;26.62;99882.14;1690886;84;21793;-84
2021/06/22 09:30:41;;;;;;;156.70;16.75;;;;;;;34.39;26.18;99890.98;1721554;82;21080;-84
2021/06/22 09:33:27;;;;;;;147.37;16.40;;;;;;;34.21;24.92;99905.91;1731940;82;21560;-83
2021/06/22 09:36:09;;;;;;;154.65;15.30;;;;;;;34.00;24.98;99904.27;1736504;82;21065;-80
2021/06/22 09:38:45;;;;;;;121.17;14.75;;;;;;;33.78;25.81;99891.44;1739368;82;22086;-78
2021/06/22 09:41:20;;;;;;;130.95;14.63;;;;;;;33.98;25.74;99893.59;1666852;85;21678;-76
2021/06/22 09:44:07;;;;;;;126.62;14.63;;;;;;;34.18;25.62;99894.05;1717652;83;21482;-77
2021/06/22 09:46:45;;;;;;;121.05;13.72;;;;;;;34.26;26.32;99897.92;1727362;82;21584;-76
2021/06/22 09:49:23;;;;;;;117.33;15.25;;;;;;;34.29;25.55;99897.47;1730484;82;21082;-77
2021/06/22 09:52:09;;;;;;;118.82;14.68;;;;;;;34.18;25.76;99881.22;1726422;82;22155;-79
2021/06/22 09:54:48;;;;;;;146.75;16.93;;;;;;;34.22;25.89;99888.47;1725314;82;21109;-77
2021/06/22 09:57:22;;;;;;;129.00;15.70;;;;;;;34.41;25.52;99883.41;1731128;82;21382;-76
2021/06/22 09:59:56;;;;;;;112.55;13.80;;;;;;;34.37;25.74;99882.20;1732754;81;21029;-85
2021/06/22 10:02:25;;;;;;;148.80;15.10;;;;;;;34.28;26.29;99886.24;1741047;82;21116;-77
2021/06/22 10:04:55;;;;;;;128.02;13.28;;;;;;;34.15;25.45;99884.93;1734823;82;21180;-75
2021/06/22 10:07:23;;;;;;;109.57;12.80;;;;;;;34.09;25.59;99884.39;1721682;82;21125;-77
2021/06/22 10:09:59;;;;;;;123.40;13.70;;;;;;;34.18;25.49;99894.05;1708119;82;21049;-75
2021/06/22 10:12:27;;;;;;;118.00;11.83;;;;;;;33.86;25.52;99891.19;1719364;82;21061;-77
2021/06/22 10:14:59;;;;;;;104.17;11.43;;;;;;;33.63;26.41;99878.85;1731163;82;21271;-79
2021/06/22 10:17:28;;;;;;;125.47;14.25;;;;;;;33.56;26.79;99876.63;1721646;82;21617;-76
2021/06/22 10:19:59;;;;;;;125.10;11.95;;;;;;;33.50;25.57;99870.69;1717667;82;21051;-75
2021/06/22 10:22:28;;;;;;;114.25;12.63;;;;;;;33.44;25.07;99864.70;1718761;82;21624;-75
2021/06/22 10:25:00;;;;;;;109.17;13.98;;;;;;;33.51;25.57;99861.42;1733685;81;21517;-77
2021/06/22 10:27:25;;;;;;;131.75;15.00;;;;;;;33.74;25.50;99861.52;1693461;84;21109;-75
2021/06/22 10:29:54;;;;;;;118.55;12.07;;;;;;;33.94;24.71;99858.72;1730569;80;21612;-74
2021/06/22 10:32:23;;;;;;;117.40;12.30;;;;;;;34.09;23.87;99862.53;1704873;82;21774;-77
2021/06/22 10:34:55;;;;;;;120.30;12.90;;;;;;;34.04;24.25;99861.81;1712424;82;20991;-75
2021/06/22 10:37:35;;;;;;;121.72;13.68;;;;;;;34.16;24.39;99842.88;1708367;82;21821;-77
2021/06/22 10:40:29;;;;;;;105.07;12.60;;;;;;;34.15;24.39;99858.97;1725069;82;21007;-74
2021/06/22 10:43:01;;;;;;;126.58;13.45;;;;;;;33.88;24.59;99853.58;1725534;82;21125;-76
2021/06/22 10:45:28;;;;;;;98.65;11.57;;;;;;;33.77;24.90;99841.95;1729301;82;22026;-74
2021/06/22 10:47:56;;;;;;;89.83;12.18;;;;;;;33.71;24.91;99850.50;1733633;82;21135;-76
2021/06/22 10:50:29;;;;;;;115.03;14.00;;;;;;;33.73;25.06;99847.53;1716970;82;21050;-75
2021/06/22 10:53:08;;;;;;;119.97;13.38;;;;;;;33.75;25.41;99854.98;1733836;82;21037;-75
2021/06/22 10:55:43;;;;;;;113.32;12.90;;;;;;;33.68;25.99;99843.25;1733865;82;21144;-75
2021/06/22 10:58:16;;;;;;;106.95;11.73;;;;;;;33.66;25.35;99849.45;1731074;82;21132;-76
2021/06/22 11:00:50;;;;;;;104.60;12.43;;;;;;;33.58;25.03;99856.82;1718279;82;21066;-74
2021/06/22 11:03:32;;;;;;;100.80;12.80;;;;;;;33.56;24.44;99850.70;1731412;82;21027;-78
2021/06/22 11:06:14;;;;;;;121.47;12.65;;;;;;;33.55;24.64;99873.61;1709369;82;21006;-77
2021/06/22 11:08:43;;;;;;;102.32;12.13;;;;;;;33.60;24.13;99851.98;1729471;82;21122;-77
2021/06/22 11:11:15;;;;;;;104.50;12.23;;;;;;;33.72;23.71;99826.22;1747802;82;21184;-74
2021/06/22 11:13:57;;;;;;;99.20;11.85;;;;;;;33.74;23.99;99850.59;1747364;81;20991;-74
2021/06/22 11:16:29;;;;;;;102.97;12.18;;;;;;;33.76;23.47;99847.95;1745556;82;27111;-73
2021/06/22 11:20:36;;;;;;;121.22;12.05;;;;;;;33.88;24.27;99845.39;1879421;75;22808;-74
2021/06/22 11:23:11;;;;;;;99.58;11.03;;;;;;;33.83;24.03;99839.73;1851076;77;21540;-73
2021/06/22 11:26:01;;;;;;;83.52;10.90;;;;;;;33.64;24.95;99841.49;1850997;77;22234;-74
2021/06/22 11:28:29;;;;;;;96.83;11.77;;;;;;;33.45;25.21;99837.70;1850912;77;21036;-74
2021/06/22 11:31:01;;;;;;;124.20;12.93;;;;;;;33.43;25.33;99855.67;1859540;75;21674;-76